Time;durP1;ratioP1;P1;durP2;ratioP2;P2;SDS_P1;SDS_P2;PMS_P1;PMS_P2;Temp;Humidity;BMP_temperature;BMP_pressure;BME280_temperature;BME280_humidity;BME280_pressure;Samples;Min_cycle;Max_cycle;Signal;HPM_P1;HPM_P2
2022/03/27 00:01:31;;;;;;;23.70;16.17;;;;;;;;;;5031621;28;20446;-77
2022/03/27 00:03:58;;;;;;;20.20;15.20;;;;;;;;;;5031881;28;20833;-76
2022/03/27 00:06:25;;;;;;;26.43;15.60;;;;;;;;;;5032324;28;20442;-77
2022/03/27 00:08:52;;;;;;;23.77;15.07;;;;;;;;;;5031570;28;20851;-77
2022/03/27 00:11:25;;;;;;;24.43;15.60;;;;;;;;;;5031317;28;20442;-75
2022/03/27 00:13:53;;;;;;;22.77;16.10;;;;;;;;;;5031103;28;20465;-76
2022/03/27 00:16:21;;;;;;;24.40;15.10;;;;;;;;;;5031214;28;20532;-76
2022/03/27 00:18:48;;;;;;;25.83;15.77;;;;;;;;;;5031642;28;20474;-76
2022/03/27 00:21:15;;;;;;;23.60;15.07;;;;;;;;;;5031464;28;20512;-75
2022/03/27 00:23:43;;;;;;;24.07;16.60;;;;;;;;;;5030023;28;20462;-77
2022/03/27 00:26:10;;;;;;;27.17;14.47;;;;;;;;;;5032715;28;20555;-76
2022/03/27 00:28:37;;;;;;;30.57;16.97;;;;;;;;;;5035851;28;20883;-76
2022/03/27 00:31:06;;;;;;;23.83;15.90;;;;;;;;;;5036149;28;20454;-76
2022/03/27 00:33:34;;;;;;;26.40;16.03;;;;;;;;;;5034389;28;20489;-76
2022/03/27 00:36:01;;;;;;;21.73;15.70;;;;;;;;;;5033279;28;20502;-75
2022/03/27 00:38:29;;;;;;;20.87;15.60;;;;;;;;;;5032409;28;20458;-75
2022/03/27 00:40:56;;;;;;;21.13;15.10;;;;;;;;;;5033298;28;20446;-76
2022/03/27 00:43:23;;;;;;;25.00;15.67;;;;;;;;;;5030584;28;20477;-76
2022/03/27 00:45:51;;;;;;;25.80;15.60;;;;;;;;;;5030879;28;20818;-76
2022/03/27 00:48:20;;;;;;;23.33;15.97;;;;;;;;;;5030756;28;20450;-75
2022/03/27 00:50:48;;;;;;;23.90;16.10;;;;;;;;;;5030061;28;20496;-76
2022/03/27 00:53:15;;;;;;;24.13;16.20;;;;;;;;;;5029466;28;20459;-76
2022/03/27 00:55:44;;;;;;;24.93;16.10;;;;;;;;;;5026765;28;20479;-77
2022/03/27 00:58:12;;;;;;;18.87;14.67;;;;;;;;;;5029956;28;20450;-76
2022/03/27 01:01:03;;;;;;;22.60;15.33;;;;;;;;;;5029585;28;21370;-76
2022/03/27 01:03:32;;;;;;;26.30;15.10;;;;;;;;;;5029413;28;20512;-76
2022/03/27 01:05:59;;;;;;;25.90;15.57;;;;;;;;;;5029835;28;20459;-76
2022/03/27 01:11:14;;;;;;;22.93;16.03;;;;;;;;;;5029671;28;20425;-75
2022/03/27 01:13:46;;;;;;;22.67;15.37;;;;;;;;;;5029914;28;20485;-77
2022/03/27 01:16:17;;;;;;;27.20;17.70;;;;;;;;;;5029866;28;20477;-75
2022/03/27 01:18:46;;;;;;;26.77;15.27;;;;;;;;;;5029843;28;20447;-77
2022/03/27 01:21:15;;;;;;;21.40;15.50;;;;;;;;;;5029842;28;20541;-76
2022/03/27 01:23:42;;;;;;;28.30;16.53;;;;;;;;;;5029594;28;20470;-76
2022/03/27 01:26:12;;;;;;;30.37;18.13;;;;;;;;;;5029440;28;20523;-76
2022/03/27 01:28:39;;;;;;;25.70;16.07;;;;;;;;;;5029641;28;20626;-77
2022/03/27 01:31:07;;;;;;;22.87;15.87;;;;;;;;;;5029390;28;21000;-77
2022/03/27 01:33:34;;;;;;;26.87;16.77;;;;;;;;;;5029370;28;20827;-77
2022/03/27 01:36:01;;;;;;;29.00;16.47;;;;;;;;;;5029929;28;20848;-76
2022/03/27 01:38:30;;;;;;;20.20;15.10;;;;;;;;;;5029813;28;20508;-76
2022/03/27 01:40:57;;;;;;;27.90;17.20;;;;;;;;;;5029671;28;20442;-75
2022/03/27 01:43:24;;;;;;;21.93;16.10;;;;;;;;;;5030187;28;20542;-76
2022/03/27 01:45:51;;;;;;;26.57;15.60;;;;;;;;;;5031066;28;20481;-76
2022/03/27 01:48:18;;;;;;;23.03;16.90;;;;;;;;;;5031693;28;20442;-76
2022/03/27 01:50:45;;;;;;;24.43;15.63;;;;;;;;;;5032983;28;20447;-76
2022/03/27 01:53:12;;;;;;;23.13;14.93;;;;;;;;;;5032355;28;20469;-76
2022/03/27 01:55:41;;;;;;;26.20;17.20;;;;;;;;;;5032365;28;20529;-76
2022/03/27 01:58:09;;;;;;;25.10;16.27;;;;;;;;;;5032747;28;20446;-76
2022/03/27 02:00:36;;;;;;;24.77;15.20;;;;;;;;;;5032974;28;20537;-76
2022/03/27 02:03:03;;;;;;;22.60;16.17;;;;;;;;;;5032657;28;20539;-75
2022/03/27 02:05:31;;;;;;;22.87;15.83;;;;;;;;;;5032652;28;20886;-76
2022/03/27 02:07:58;;;;;;;29.33;17.03;;;;;;;;;;5032449;28;20453;-76
2022/03/27 02:10:25;;;;;;;21.60;15.10;;;;;;;;;;5032772;28;20461;-76
2022/03/27 02:12:53;;;;;;;29.73;17.30;;;;;;;;;;5032368;28;20462;-76
2022/03/27 02:15:21;;;;;;;20.47;13.97;;;;;;;;;;5032631;28;20454;-76
2022/03/27 02:17:48;;;;;;;27.53;16.67;;;;;;;;;;5039958;28;20523;-76
2022/03/27 02:20:15;;;;;;;33.37;21.53;;;;;;;;;;5040600;28;20449;-76
2022/03/27 02:22:42;;;;;;;38.53;23.60;;;;;;;;;;5039281;28;20880;-75
2022/03/27 02:25:10;;;;;;;27.37;17.60;;;;;;;;;;5040262;28;20450;-76
2022/03/27 02:27:37;;;;;;;23.60;15.97;;;;;;;;;;5035767;28;21025;-75
2022/03/27 02:30:07;;;;;;;24.23;16.27;;;;;;;;;;5032438;28;20489;-76
2022/03/27 02:32:34;;;;;;;24.17;16.30;;;;;;;;;;5031715;28;20446;-76
2022/03/27 02:35:01;;;;;;;23.07;15.87;;;;;;;;;;5031993;28;20451;-75
2022/03/27 02:37:28;;;;;;;26.77;17.13;;;;;;;;;;5031764;28;20843;-76
2022/03/27 02:39:55;;;;;;;25.33;16.40;;;;;;;;;;5032159;28;20508;-74
2022/03/27 02:42:22;;;;;;;23.40;15.67;;;;;;;;;;5032402;28;20454;-77
2022/03/27 02:44:49;;;;;;;24.30;16.30;;;;;;;;;;5032051;28;20471;-76
2022/03/27 02:47:17;;;;;;;24.67;15.93;;;;;;;;;;5032129;28;20446;-76
2022/03/27 02:49:44;;;;;;;24.77;15.90;;;;;;;;;;5031903;28;20923;-75
2022/03/27 02:52:12;;;;;;;22.50;16.13;;;;;;;;;;5031793;28;20451;-76
2022/03/27 02:54:38;;;;;;;24.30;15.67;;;;;;;;;;5031824;28;20545;-76
2022/03/27 02:57:06;;;;;;;19.87;14.87;;;;;;;;;;5035432;28;20479;-76
2022/03/27 02:59:33;;;;;;;24.13;16.20;;;;;;;;;;5033054;28;20457;-76
2022/03/27 03:02:03;;;;;;;23.40;16.07;;;;;;;;;;5032142;28;20438;-76
2022/03/27 03:04:31;;;;;;;28.00;16.97;;;;;;;;;;5031686;28;20470;-77
2022/03/27 03:07:00;;;;;;;22.27;17.07;;;;;;;;;;5031751;28;20529;-75
2022/03/27 03:09:27;;;;;;;26.90;17.70;;;;;;;;;;5032093;28;20454;-76
2022/03/27 03:11:54;;;;;;;26.43;17.17;;;;;;;;;;5031523;28;20459;-76
2022/03/27 03:14:21;;;;;;;21.30;16.07;;;;;;;;;;5031080;28;20478;-76
2022/03/27 03:16:49;;;;;;;22.20;16.60;;;;;;;;;;5031453;28;20478;-77
2022/03/27 03:19:16;;;;;;;24.00;17.77;;;;;;;;;;5031561;28;20481;-76
2022/03/27 03:21:45;;;;;;;29.47;15.13;;;;;;;;;;5031814;28;20438;-75
2022/03/27 03:24:12;;;;;;;25.23;16.53;;;;;;;;;;5031261;28;20536;-76
2022/03/27 03:26:39;;;;;;;24.30;17.33;;;;;;;;;;5031236;28;20457;-76
2022/03/27 03:29:07;;;;;;;23.53;16.43;;;;;;;;;;5031452;28;20489;-76
2022/03/27 03:31:34;;;;;;;25.77;17.23;;;;;;;;;;5031213;28;20439;-76
2022/03/27 03:34:01;;;;;;;26.40;16.97;;;;;;;;;;5030898;28;20485;-75
2022/03/27 03:36:28;;;;;;;26.60;17.60;;;;;;;;;;5031230;28;20559;-76
2022/03/27 03:38:56;;;;;;;30.70;17.27;;;;;;;;;;5031342;28;20533;-75
2022/03/27 03:41:23;;;;;;;26.03;17.00;;;;;;;;;;5031262;28;20526;-76
2022/03/27 03:43:51;;;;;;;25.60;16.97;;;;;;;;;;5031285;28;20808;-75
2022/03/27 03:46:18;;;;;;;24.00;17.87;;;;;;;;;;5031106;28;20446;-76
2022/03/27 03:48:45;;;;;;;27.63;18.00;;;;;;;;;;5030570;28;20807;-76
2022/03/27 03:51:12;;;;;;;27.47;17.10;;;;;;;;;;5030877;28;20450;-76
2022/03/27 03:53:39;;;;;;;23.70;15.63;;;;;;;;;;5030954;28;20921;-76
2022/03/27 03:56:08;;;;;;;26.43;17.43;;;;;;;;;;5030876;28;20512;-76
2022/03/27 03:58:35;;;;;;;24.17;16.40;;;;;;;;;;5030614;28;20490;-76
2022/03/27 04:01:02;;;;;;;25.70;16.73;;;;;;;;;;5031007;28;20454;-76
2022/03/27 04:03:29;;;;;;;23.87;16.80;;;;;;;;;;5031204;28;20559;-75
2022/03/27 04:05:56;;;;;;;20.93;15.80;;;;;;;;;;5030795;28;20480;-76
2022/03/27 04:08:24;;;;;;;24.80;17.37;;;;;;;;;;5031086;28;20443;-76
2022/03/27 04:10:51;;;;;;;24.57;17.57;;;;;;;;;;5030540;28;20450;-76
2022/03/27 04:13:19;;;;;;;31.40;16.83;;;;;;;;;;5030248;28;20467;-77
2022/03/27 04:15:46;;;;;;;25.60;17.53;;;;;;;;;;5030725;28;20704;-76
2022/03/27 04:18:14;;;;;;;28.27;16.93;;;;;;;;;;5030635;28;20569;-76
2022/03/27 04:20:43;;;;;;;22.53;18.03;;;;;;;;;;5030811;28;20458;-76
2022/03/27 04:23:10;;;;;;;26.80;17.63;;;;;;;;;;5030038;28;20929;-77
2022/03/27 04:25:38;;;;;;;25.13;18.10;;;;;;;;;;5030459;28;20458;-76
2022/03/27 04:28:07;;;;;;;32.10;19.10;;;;;;;;;;5030467;28;20474;-75
2022/03/27 04:30:37;;;;;;;26.43;18.37;;;;;;;;;;5030423;28;20482;-75
2022/03/27 04:33:04;;;;;;;29.10;18.77;;;;;;;;;;5029927;28;20481;-76
2022/03/27 04:35:31;;;;;;;27.70;19.03;;;;;;;;;;5030177;28;20441;-76
2022/03/27 04:37:58;;;;;;;23.20;17.30;;;;;;;;;;5029924;28;20484;-76
2022/03/27 04:40:25;;;;;;;24.70;18.07;;;;;;;;;;5030430;28;20453;-76
2022/03/27 04:42:52;;;;;;;24.93;17.87;;;;;;;;;;5030030;28;20465;-76
2022/03/27 04:45:19;;;;;;;26.10;19.40;;;;;;;;;;5030333;28;20446;-76
2022/03/27 04:47:48;;;;;;;26.73;17.77;;;;;;;;;;5030110;28;20851;-76
2022/03/27 04:50:15;;;;;;;27.03;18.60;;;;;;;;;;5037156;28;20445;-76
2022/03/27 04:52:43;;;;;;;27.47;17.30;;;;;;;;;;5039670;28;20445;-76
2022/03/27 04:55:10;;;;;;;32.87;18.20;;;;;;;;;;5040804;28;20449;-75
2022/03/27 04:57:38;;;;;;;24.63;17.80;;;;;;;;;;5040050;28;20500;-76
2022/03/27 05:00:06;;;;;;;29.57;19.30;;;;;;;;;;5035573;28;20451;-76
2022/03/27 05:02:33;;;;;;;29.23;18.63;;;;;;;;;;5029659;28;20449;-76
2022/03/27 05:05:01;;;;;;;30.03;18.13;;;;;;;;;;5030067;28;20434;-75
2022/03/27 05:07:28;;;;;;;25.93;18.30;;;;;;;;;;5030651;28;20446;-75
2022/03/27 05:09:55;;;;;;;25.33;18.33;;;;;;;;;;5030545;28;20561;-76
2022/03/27 05:12:22;;;;;;;29.00;18.37;;;;;;;;;;5030788;28;20503;-75
2022/03/27 05:14:49;;;;;;;24.10;18.20;;;;;;;;;;5029756;28;20471;-76
2022/03/27 05:17:16;;;;;;;26.77;18.43;;;;;;;;;;5030563;28;20478;-75
2022/03/27 05:19:43;;;;;;;22.43;16.57;;;;;;;;;;5029665;28;20563;-76
2022/03/27 05:22:11;;;;;;;24.90;17.80;;;;;;;;;;5030278;28;20449;-76
2022/03/27 05:24:38;;;;;;;26.93;18.33;;;;;;;;;;5033082;28;20478;-75
2022/03/27 05:27:05;;;;;;;29.80;18.70;;;;;;;;;;5033550;28;20449;-75
2022/03/27 05:29:33;;;;;;;25.97;18.57;;;;;;;;;;5033699;28;20452;-76
2022/03/27 05:32:00;;;;;;;23.90;16.97;;;;;;;;;;5034594;28;20529;-76
2022/03/27 05:34:27;;;;;;;28.00;16.53;;;;;;;;;;5032166;28;20482;-76
2022/03/27 05:36:54;;;;;;;26.13;17.50;;;;;;;;;;5033200;28;20943;-75
2022/03/27 05:39:22;;;;;;;24.60;17.43;;;;;;;;;;5033703;28;20451;-75
2022/03/27 05:41:49;;;;;;;26.43;17.20;;;;;;;;;;5033416;28;20937;-75
2022/03/27 05:44:16;;;;;;;24.67;17.97;;;;;;;;;;5032874;28;20517;-76
2022/03/27 05:46:43;;;;;;;18.70;16.37;;;;;;;;;;5032993;28;20858;-75
2022/03/27 05:49:10;;;;;;;23.70;16.63;;;;;;;;;;5033900;28;20935;-75
2022/03/27 05:51:37;;;;;;;28.00;18.03;;;;;;;;;;5033416;28;20941;-76
2022/03/27 05:54:04;;;;;;;27.57;18.43;;;;;;;;;;5032623;28;20474;-76
2022/03/27 05:56:33;;;;;;;25.80;19.60;;;;;;;;;;5032858;28;20975;-76
2022/03/27 05:59:00;;;;;;;28.40;18.13;;;;;;;;;;5032848;28;20489;-75
2022/03/27 06:01:27;;;;;;;30.43;20.57;;;;;;;;;;5039780;28;20452;-76
2022/03/27 06:03:54;;;;;;;38.20;19.10;;;;;;;;;;5036427;28;20461;-76
2022/03/27 06:06:21;;;;;;;23.67;18.13;;;;;;;;;;5032721;28;20446;-76
2022/03/27 06:08:50;;;;;;;26.80;18.47;;;;;;;;;;5033195;28;20448;-76
2022/03/27 06:11:17;;;;;;;28.00;18.97;;;;;;;;;;5032831;28;20449;-75
2022/03/27 06:13:45;;;;;;;25.13;17.93;;;;;;;;;;5032395;28;20468;-76
2022/03/27 06:16:12;;;;;;;26.50;19.67;;;;;;;;;;5032780;28;20450;-76
2022/03/27 06:18:39;;;;;;;23.10;16.90;;;;;;;;;;5032710;28;20510;-75
2022/03/27 06:21:06;;;;;;;29.80;18.83;;;;;;;;;;5032602;28;20453;-76
2022/03/27 06:23:33;;;;;;;27.73;18.70;;;;;;;;;;5032651;28;21023;-76
2022/03/27 06:26:01;;;;;;;24.97;19.50;;;;;;;;;;5032515;28;20472;-76
2022/03/27 06:28:28;;;;;;;26.20;19.23;;;;;;;;;;5032996;28;20446;-76
2022/03/27 06:30:56;;;;;;;28.10;18.97;;;;;;;;;;5032866;28;20508;-76
2022/03/27 06:33:23;;;;;;;34.73;21.50;;;;;;;;;;5032093;28;20520;-76
2022/03/27 06:35:50;;;;;;;29.10;20.33;;;;;;;;;;5032528;28;20493;-76
2022/03/27 06:38:18;;;;;;;32.77;20.50;;;;;;;;;;5032927;28;20478;-76
2022/03/27 06:40:45;;;;;;;31.97;18.50;;;;;;;;;;5032679;28;20442;-76
2022/03/27 06:43:13;;;;;;;28.53;18.30;;;;;;;;;;5031888;28;20466;-77
2022/03/27 06:45:40;;;;;;;22.27;18.40;;;;;;;;;;5032330;28;20489;-76
2022/03/27 06:48:10;;;;;;;26.97;18.43;;;;;;;;;;5032178;28;20915;-76
2022/03/27 06:50:37;;;;;;;24.83;17.47;;;;;;;;;;5032252;28;20461;-76
2022/03/27 06:53:05;;;;;;;25.53;18.37;;;;;;;;;;5031756;28;20474;-76
2022/03/27 06:55:32;;;;;;;38.50;26.90;;;;;;;;;;5033260;28;20485;-77
2022/03/27 06:57:59;;;;;;;27.07;20.50;;;;;;;;;;5036978;28;20475;-76
2022/03/27 07:03:13;;;;;;;27.13;20.27;;;;;;;;;;5032618;28;20440;-78
2022/03/27 07:05:41;;;;;;;24.60;18.53;;;;;;;;;;5033174;28;20443;-77
2022/03/27 07:08:09;;;;;;;29.63;20.53;;;;;;;;;;5032203;28;20480;-77
2022/03/27 07:10:37;;;;;;;33.53;24.80;;;;;;;;;;5032385;28;20868;-76
2022/03/27 07:13:04;;;;;;;28.90;21.33;;;;;;;;;;5031883;28;20480;-76
2022/03/27 07:15:31;;;;;;;27.17;21.20;;;;;;;;;;5031948;28;20450;-76
2022/03/27 07:17:59;;;;;;;28.87;20.93;;;;;;;;;;5028509;28;20482;-77
2022/03/27 07:20:28;;;;;;;29.30;20.27;;;;;;;;;;5027757;28;20512;-76
2022/03/27 07:22:57;;;;;;;24.60;18.40;;;;;;;;;;5031428;28;20581;-76
2022/03/27 07:25:24;;;;;;;28.43;19.77;;;;;;;;;;5031246;28;20930;-77
2022/03/27 07:27:52;;;;;;;29.27;20.63;;;;;;;;;;5031520;28;20493;-77
2022/03/27 07:30:19;;;;;;;23.50;19.20;;;;;;;;;;5031098;28;20520;-77
2022/03/27 07:32:46;;;;;;;33.10;21.47;;;;;;;;;;5030656;28;20446;-76
2022/03/27 07:35:14;;;;;;;26.50;21.00;;;;;;;;;;5030801;28;20442;-77
2022/03/27 07:37:43;;;;;;;31.20;21.10;;;;;;;;;;5031198;28;20481;-76
2022/03/27 07:40:11;;;;;;;26.23;20.63;;;;;;;;;;5031229;28;20496;-77
2022/03/27 07:42:39;;;;;;;26.43;20.80;;;;;;;;;;5030745;28;20496;-77
2022/03/27 07:45:09;;;;;;;26.53;20.40;;;;;;;;;;5030245;28;20492;-77
2022/03/27 07:47:36;;;;;;;36.87;23.00;;;;;;;;;;5030981;28;20563;-77
2022/03/27 07:50:03;;;;;;;28.73;20.80;;;;;;;;;;5030588;28;20463;-77
2022/03/27 07:52:30;;;;;;;27.03;20.73;;;;;;;;;;5030812;28;20553;-75
2022/03/27 07:54:58;;;;;;;25.33;21.43;;;;;;;;;;5031126;28;20496;-76
2022/03/27 07:57:26;;;;;;;27.30;21.57;;;;;;;;;;5032425;28;20438;-76
2022/03/27 07:59:53;;;;;;;30.27;20.13;;;;;;;;;;5038440;28;20558;-75
2022/03/27 08:02:21;;;;;;;27.27;21.47;;;;;;;;;;5046864;28;20453;-77
2022/03/27 08:04:48;;;;;;;29.97;21.27;;;;;;;;;;5040123;28;20497;-77
2022/03/27 08:07:15;;;;;;;29.83;21.43;;;;;;;;;;5038419;28;20446;-77
2022/03/27 08:09:42;;;;;;;27.80;20.77;;;;;;;;;;5030863;28;20822;-77
2022/03/27 08:12:11;;;;;;;29.63;21.33;;;;;;;;;;5031469;28;20450;-77
2022/03/27 08:14:39;;;;;;;24.30;20.63;;;;;;;;;;5030197;28;20498;-77
2022/03/27 08:17:07;;;;;;;31.17;21.27;;;;;;;;;;5030318;28;20508;-77
2022/03/27 08:19:34;;;;;;;25.00;19.93;;;;;;;;;;5030507;28;20536;-77
2022/03/27 08:22:02;;;;;;;25.63;17.97;;;;;;;;;;5031596;28;20442;-76
2022/03/27 08:24:29;;;;;;;23.10;19.40;;;;;;;;;;5028970;28;20557;-76
2022/03/27 08:26:55;;;;;;;23.37;18.10;;;;;;;;;;5030305;28;20952;-76
2022/03/27 08:29:24;;;;;;;23.83;19.30;;;;;;;;;;5030262;28;20937;-77
2022/03/27 08:31:52;;;;;;;22.17;17.70;;;;;;;;;;5030123;28;20938;-77
2022/03/27 08:34:20;;;;;;;23.97;18.07;;;;;;;;;;5029749;28;20478;-76
2022/03/27 08:36:47;;;;;;;24.93;17.30;;;;;;;;;;5030166;28;20447;-77
2022/03/27 08:39:14;;;;;;;22.87;18.30;;;;;;;;;;5030189;28;20482;-77
2022/03/27 08:41:43;;;;;;;22.67;15.80;;;;;;;;;;5030985;28;20454;-77
2022/03/27 08:44:11;;;;;;;24.30;16.53;;;;;;;;;;5029811;28;20554;-76
2022/03/27 08:46:41;;;;;;;23.83;16.37;;;;;;;;;;5030370;28;20441;-76
2022/03/27 08:49:09;;;;;;;21.20;17.00;;;;;;;;;;5030207;28;20523;-76
2022/03/27 08:51:41;;;;;;;26.10;16.63;;;;;;;;;;5029926;28;20493;-76
2022/03/27 08:54:09;;;;;;;23.00;16.83;;;;;;;;;;5029700;28;20478;-77
2022/03/27 08:56:37;;;;;;;22.23;15.70;;;;;;;;;;5031330;28;20465;-78
2022/03/27 08:59:07;;;;;;;17.50;15.77;;;;;;;;;;5041358;28;20573;-77
2022/03/27 09:01:34;;;;;;;18.77;16.40;;;;;;;;;;5045225;28;20461;-76
2022/03/27 09:04:03;;;;;;;18.30;15.90;;;;;;;;;;5043190;28;20466;-76
2022/03/27 09:06:30;;;;;;;21.30;16.00;;;;;;;;;;5042682;28;20442;-78
2022/03/27 09:08:57;;;;;;;20.10;16.20;;;;;;;;;;5036419;28;20446;-79
2022/03/27 09:11:24;;;;;;;25.50;17.30;;;;;;;;;;5019802;28;20448;-79
2022/03/27 09:13:52;;;;;;;20.70;15.63;;;;;;;;;;5023992;28;21283;-77
2022/03/27 09:16:20;;;;;;;19.53;15.80;;;;;;;;;;5031952;28;20537;-78
2022/03/27 09:18:48;;;;;;;17.70;15.53;;;;;;;;;;5020612;28;22236;-76
2022/03/27 09:21:17;;;;;;;23.13;15.87;;;;;;;;;;5020904;28;20438;-77
2022/03/27 09:23:44;;;;;;;23.47;16.90;;;;;;;;;;5029079;28;20501;-77
2022/03/27 09:26:13;;;;;;;21.00;15.17;;;;;;;;;;5031992;28;20507;-77
2022/03/27 09:28:41;;;;;;;22.20;16.90;;;;;;;;;;5033924;28;20446;-78
2022/03/27 09:31:21;;;;;;;19.17;15.00;;;;;;;;;;5034536;28;20442;-76
2022/03/27 09:33:48;;;;;;;18.90;14.90;;;;;;;;;;5033111;28;20476;-77
2022/03/27 09:36:19;;;;;;;24.43;18.20;;;;;;;;;;5033432;28;20442;-76
2022/03/27 09:39:00;;;;;;;22.83;16.83;;;;;;;;;;5033068;28;20482;-77
2022/03/27 09:41:31;;;;;;;19.97;16.10;;;;;;;;;;5032864;28;20450;-76
2022/03/27 09:44:02;;;;;;;17.57;15.20;;;;;;;;;;5032158;28;20477;-76
2022/03/27 09:46:47;;;;;;;17.77;15.97;;;;;;;;;;5033023;28;20787;-77
2022/03/27 09:49:14;;;;;;;17.17;15.40;;;;;;;;;;5033576;28;20446;-77
2022/03/27 09:51:52;;;;;;;21.13;16.23;;;;;;;;;;5029054;28;20853;-77
2022/03/27 09:54:19;;;;;;;19.00;15.97;;;;;;;;;;5032373;28;20512;-78
2022/03/27 09:56:46;;;;;;;24.37;15.43;;;;;;;;;;5033136;28;20454;-76
2022/03/27 09:59:26;;;;;;;18.87;15.43;;;;;;;;;;5032982;28;20509;-77
2022/03/27 10:01:53;;;;;;;20.53;17.00;;;;;;;;;;5032908;28;20454;-76
2022/03/27 10:04:20;;;;;;;20.07;15.97;;;;;;;;;;5032209;28;20876;-78
2022/03/27 10:06:47;;;;;;;19.27;16.10;;;;;;;;;;5032542;28;20446;-77
2022/03/27 10:09:15;;;;;;;26.33;17.43;;;;;;;;;;5031656;28;20439;-76
2022/03/27 10:11:43;;;;;;;17.17;15.20;;;;;;;;;;5032184;28;20457;-77
2022/03/27 10:14:10;;;;;;;19.33;14.50;;;;;;;;;;5031573;28;20994;-76
2022/03/27 10:16:38;;;;;;;22.67;14.43;;;;;;;;;;5032865;28;20449;-76
2022/03/27 10:19:06;;;;;;;18.80;14.67;;;;;;;;;;5033999;28;20824;-77
2022/03/27 10:21:34;;;;;;;18.70;15.10;;;;;;;;;;5032802;28;20934;-76
2022/03/27 10:24:06;;;;;;;18.47;15.00;;;;;;;;;;5032405;28;20467;-76
2022/03/27 10:26:35;;;;;;;17.17;14.73;;;;;;;;;;5033849;28;20465;-77
2022/03/27 10:29:03;;;;;;;18.80;15.77;;;;;;;;;;5033713;28;20451;-78
2022/03/27 10:31:31;;;;;;;19.80;13.97;;;;;;;;;;5033693;28;20458;-78
2022/03/27 10:34:00;;;;;;;18.83;15.20;;;;;;;;;;5032916;28;20505;-77
2022/03/27 10:36:33;;;;;;;25.17;16.03;;;;;;;;;;5032864;28;20455;-77
2022/03/27 10:39:05;;;;;;;17.17;13.53;;;;;;;;;;5016490;28;20949;-77
2022/03/27 10:41:35;;;;;;;20.97;16.67;;;;;;;;;;5032193;28;20474;-76
2022/03/27 10:44:07;;;;;;;21.77;15.43;;;;;;;;;;5031343;28;20465;-77
2022/03/27 10:46:35;;;;;;;20.97;15.70;;;;;;;;;;5032130;28;20915;-77
2022/03/27 10:49:12;;;;;;;19.47;16.80;;;;;;;;;;5031802;28;20439;-77
2022/03/27 10:51:40;;;;;;;19.70;15.47;;;;;;;;;;5029529;28;21046;-76
2022/03/27 10:54:09;;;;;;;19.57;15.90;;;;;;;;;;5028352;28;21076;-77
2022/03/27 10:56:38;;;;;;;17.77;15.07;;;;;;;;;;5031765;28;20819;-76
2022/03/27 10:59:10;;;;;;;22.60;15.90;;;;;;;;;;5030922;28;20528;-77
2022/03/27 11:01:38;;;;;;;17.80;15.00;;;;;;;;;;5031586;28;20474;-78
2022/03/27 11:04:06;;;;;;;17.70;15.60;;;;;;;;;;5031120;28;20562;-77
2022/03/27 11:06:34;;;;;;;18.83;14.60;;;;;;;;;;5031831;28;20489;-77
2022/03/27 11:09:02;;;;;;;15.97;14.27;;;;;;;;;;5031515;28;20500;-76
2022/03/27 11:11:52;;;;;;;20.00;15.00;;;;;;;;;;5031830;28;20887;-77
2022/03/27 11:14:48;;;;;;;18.53;15.40;;;;;;;;;;5031642;28;20466;-77
2022/03/27 11:17:15;;;;;;;20.13;15.30;;;;;;;;;;5029737;28;20451;-78
2022/03/27 11:19:46;;;;;;;17.93;15.40;;;;;;;;;;5017292;28;20489;-78
2022/03/27 11:22:34;;;;;;;17.57;15.73;;;;;;;;;;5025835;28;20454;-78
2022/03/27 11:25:20;;;;;;;17.33;13.73;;;;;;;;;;5020404;28;20958;-78
2022/03/27 11:27:57;;;;;;;18.13;14.40;;;;;;;;;;5027265;28;20480;-77
2022/03/27 11:30:26;;;;;;;17.47;13.73;;;;;;;;;;5031262;28;20508;-77
2022/03/27 11:33:11;;;;;;;15.57;13.70;;;;;;;;;;5030835;28;20471;-77
2022/03/27 11:35:40;;;;;;;17.30;14.33;;;;;;;;;;5031281;28;20485;-77
2022/03/27 11:38:31;;;;;;;15.93;12.60;;;;;;;;;;5031049;28;20455;-76
2022/03/27 11:40:59;;;;;;;17.43;12.67;;;;;;;;;;5016416;28;20486;-76
2022/03/27 11:43:35;;;;;;;16.50;13.23;;;;;;;;;;5093209;27;1202882;-78
2022/03/27 11:46:04;;;;;;;17.03;13.10;;;;;;;;;;5129248;28;20227;-77
2022/03/27 11:48:31;;;;;;;13.33;11.57;;;;;;;;;;5129053;28;20433;-78
2022/03/27 11:50:58;;;;;;;13.50;11.33;;;;;;;;;;5129981;28;20732;-77
2022/03/27 11:53:32;;;;;;;11.67;9.97;;;;;;;;;;5128593;27;20458;-77
2022/03/27 11:56:09;;;;;;;14.93;11.90;;;;;;;;;;5129294;28;20449;-76
2022/03/27 11:58:38;;;;;;;14.20;11.73;;;;;;;;;;5129856;28;20730;-78
2022/03/27 12:01:05;;;;;;;19.07;12.33;;;;;;;;;;5128322;28;21028;-78
2022/03/27 12:03:33;;;;;;;18.03;11.30;;;;;;;;;;5128521;27;20478;-78
2022/03/27 12:06:06;;;;;;;15.83;10.70;;;;;;;;;;5116087;28;20610;-77
2022/03/27 12:08:35;;;;;;;13.70;11.60;;;;;;;;;;5108776;28;20477;-78
2022/03/27 12:11:06;;;;;;;13.43;11.00;;;;;;;;;;5107889;28;20991;-77
2022/03/27 12:13:38;;;;;;;21.50;11.17;;;;;;;;;;5117300;28;20634;-76
2022/03/27 12:16:06;;;;;;;12.87;11.50;;;;;;;;;;5119669;28;20962;-77
2022/03/27 12:18:34;;;;;;;12.63;11.20;;;;;;;;;;5119566;28;20439;-77
2022/03/27 12:21:03;;;;;;;13.87;11.10;;;;;;;;;;5110136;28;20454;-78
2022/03/27 12:23:32;;;;;;;12.30;10.20;;;;;;;;;;5107797;28;20486;-76
2022/03/27 12:26:02;;;;;;;14.83;12.10;;;;;;;;;;5107943;28;20454;-77
2022/03/27 12:31:23;;;;;;;13.83;9.50;;;;;;;;;;5107675;28;20399;-77
2022/03/27 12:33:51;;;;;;;12.40;9.90;;;;;;;;;;5107267;28;20538;-77
2022/03/27 12:36:18;;;;;;;13.30;10.90;;;;;;;;;;5107283;28;20447;-77
2022/03/27 12:38:45;;;;;;;13.27;10.87;;;;;;;;;;5107303;28;20465;-77
2022/03/27 12:41:12;;;;;;;10.90;9.70;;;;;;;;;;5107494;28;20488;-76
2022/03/27 12:43:42;;;;;;;14.30;11.37;;;;;;;;;;5107446;28;20490;-76
2022/03/27 12:46:20;;;;;;;11.43;10.23;;;;;;;;;;5108198;28;20532;-77
2022/03/27 12:48:58;;;;;;;11.90;10.70;;;;;;;;;;5107158;28;20550;-78
2022/03/27 12:51:26;;;;;;;13.57;9.80;;;;;;;;;;5107179;28;20447;-77
2022/03/27 12:54:01;;;;;;;12.00;9.83;;;;;;;;;;5098890;28;20785;-76
2022/03/27 12:56:28;;;;;;;10.83;9.27;;;;;;;;;;5093250;28;20451;-76
2022/03/27 12:58:55;;;;;;;12.27;9.77;;;;;;;;;;5094189;28;21123;-77
2022/03/27 13:01:23;;;;;;;10.93;9.80;;;;;;;;;;5093458;28;20451;-75
2022/03/27 13:04:02;;;;;;;13.33;10.33;;;;;;;;;;5093287;28;20622;-77
2022/03/27 13:06:36;;;;;;;20.93;10.77;;;;;;;;;;5077517;28;20924;-77
2022/03/27 13:09:04;;;;;;;15.63;10.70;;;;;;;;;;5074193;28;20483;-78
2022/03/27 13:11:31;;;;;;;12.43;9.70;;;;;;;;;;5073079;28;20483;-77
2022/03/27 13:14:00;;;;;;;14.50;10.83;;;;;;;;;;5073218;28;20518;-77
2022/03/27 13:16:28;;;;;;;14.37;10.00;;;;;;;;;;5073475;28;20441;-77
2022/03/27 13:19:00;;;;;;;12.53;10.03;;;;;;;;;;5073162;28;20436;-77
2022/03/27 13:21:29;;;;;;;12.30;9.93;;;;;;;;;;5072708;28;20526;-77
2022/03/27 13:23:56;;;;;;;13.67;9.53;;;;;;;;;;5072879;28;20475;-78
2022/03/27 13:26:23;;;;;;;11.27;9.80;;;;;;;;;;5073579;28;20448;-76
2022/03/27 13:28:51;;;;;;;13.43;9.90;;;;;;;;;;5072865;28;20440;-77
2022/03/27 13:31:18;;;;;;;14.90;10.87;;;;;;;;;;5091297;28;20483;-76
2022/03/27 13:33:45;;;;;;;13.63;10.40;;;;;;;;;;5091400;28;21035;-76
2022/03/27 13:36:12;;;;;;;12.80;10.00;;;;;;;;;;5093188;28;20436;-77
2022/03/27 13:38:41;;;;;;;11.47;9.87;;;;;;;;;;5099313;28;20443;-76
2022/03/27 13:43:53;;;;;;;13.70;10.67;;;;;;;;;;5092830;28;20529;-76
2022/03/27 13:46:20;;;;;;;14.50;10.20;;;;;;;;;;5092906;28;20523;-77
2022/03/27 13:48:47;;;;;;;11.03;9.93;;;;;;;;;;5092900;28;20447;-77
2022/03/27 13:51:14;;;;;;;11.13;9.97;;;;;;;;;;5092176;28;20500;-77
2022/03/27 13:53:43;;;;;;;13.60;10.00;;;;;;;;;;5091800;28;20588;-78
2022/03/27 13:56:10;;;;;;;14.17;9.30;;;;;;;;;;5092180;28;20444;-78
2022/03/27 13:58:37;;;;;;;11.77;10.47;;;;;;;;;;5092143;28;20823;-78
2022/03/27 14:01:05;;;;;;;24.47;10.23;;;;;;;;;;5092638;28;20530;-78
2022/03/27 14:03:32;;;;;;;14.23;9.90;;;;;;;;;;5092460;28;20506;-77
2022/03/27 14:05:59;;;;;;;14.80;11.23;;;;;;;;;;5091207;28;20440;-77
2022/03/27 14:08:26;;;;;;;13.37;9.93;;;;;;;;;;5091490;28;20444;-77
2022/03/27 14:10:54;;;;;;;13.73;10.50;;;;;;;;;;5091183;28;20439;-76
2022/03/27 14:13:21;;;;;;;12.20;10.03;;;;;;;;;;5091270;28;21001;-77
2022/03/27 14:15:49;;;;;;;10.80;9.30;;;;;;;;;;5091419;28;20941;-76
2022/03/27 14:18:16;;;;;;;13.53;9.07;;;;;;;;;;5091605;28;20509;-76
2022/03/27 14:20:43;;;;;;;11.83;9.50;;;;;;;;;;5088956;28;20443;-76
2022/03/27 14:23:10;;;;;;;13.10;10.17;;;;;;;;;;5082202;28;20480;-77
2022/03/27 14:25:37;;;;;;;13.23;10.70;;;;;;;;;;5092236;28;20439;-78
2022/03/27 14:28:06;;;;;;;12.73;9.63;;;;;;;;;;5093373;28;20447;-79
2022/03/27 14:30:34;;;;;;;17.97;10.40;;;;;;;;;;5093781;28;20831;-77
2022/03/27 14:33:01;;;;;;;12.00;9.30;;;;;;;;;;5093376;28;21037;-78
2022/03/27 14:35:28;;;;;;;12.77;9.90;;;;;;;;;;5092453;28;20457;-78
2022/03/27 14:37:55;;;;;;;13.50;9.87;;;;;;;;;;5092816;28;20517;-76